createdAt,value
2023-02-03T00:02:08.831Z,2.56
2023-02-03T00:04:35.422Z,2.60
2023-02-03T00:07:02.007Z,2.64
2023-02-03T00:09:28.760Z,2.70
2023-02-03T00:11:55.405Z,2.74
2023-02-03T00:14:22.193Z,2.79
2023-02-03T00:16:48.827Z,2.83
2023-02-03T00:19:17.735Z,2.87
2023-02-03T00:21:44.417Z,2.90
2023-02-03T00:24:11.054Z,2.93
2023-02-03T00:26:41.156Z,2.96
2023-02-03T00:29:07.796Z,2.99
2023-02-03T00:31:34.518Z,3.01
2023-02-03T00:34:01.289Z,3.03
2023-02-03T00:36:29.272Z,3.05
2023-02-03T00:38:55.893Z,3.09
2023-02-03T00:41:22.574Z,3.12
2023-02-03T00:43:49.876Z,3.15
2023-02-03T00:46:17.103Z,3.18
2023-02-03T00:48:43.989Z,3.22
2023-02-03T00:51:10.664Z,3.23
2023-02-03T00:53:38.686Z,3.25
2023-02-03T00:56:06.043Z,3.25
2023-02-03T00:58:32.672Z,3.27
2023-02-03T01:00:59.419Z,3.28
2023-02-03T01:03:26.028Z,3.31
2023-02-03T01:05:52.672Z,3.33
2023-02-03T01:08:19.676Z,3.34
2023-02-03T01:10:47.643Z,3.36
2023-02-03T01:13:14.254Z,3.37
2023-02-03T01:15:46.098Z,3.39
2023-02-03T01:18:12.807Z,3.38
2023-02-03T01:20:39.822Z,3.39
2023-02-03T01:23:06.434Z,3.39
2023-02-03T01:25:35.485Z,3.41
2023-02-03T01:28:03.505Z,3.41
2023-02-03T01:30:30.248Z,3.43
2023-02-03T01:32:57.271Z,3.44
2023-02-03T01:35:23.968Z,3.45
2023-02-03T01:37:50.690Z,3.46
2023-02-03T01:40:18.471Z,3.45
2023-02-03T01:42:45.390Z,3.46
2023-02-03T01:45:13.823Z,3.48
2023-02-03T01:47:46.336Z,3.47
2023-02-03T01:50:17.435Z,3.48
2023-02-03T01:52:48.995Z,3.49
2023-02-03T01:55:19.229Z,3.49
2023-02-03T01:57:51.274Z,3.49
2023-02-03T02:00:20.180Z,3.48
2023-02-03T02:02:48.755Z,3.49
2023-02-03T02:05:23.379Z,3.49
2023-02-03T02:07:50.735Z,3.50
2023-02-03T02:10:17.785Z,3.51
2023-02-03T02:12:44.832Z,3.51
2023-02-03T02:15:11.533Z,3.52
2023-02-03T02:18:05.311Z,3.53
2023-02-03T02:20:42.945Z,3.54
2023-02-03T02:23:45.192Z,3.55
2023-02-03T02:26:38.667Z,3.55
2023-02-03T02:29:28.440Z,3.54
2023-02-03T02:32:06.820Z,3.54
2023-02-03T02:34:46.805Z,3.56
2023-02-03T02:37:23.006Z,3.55
2023-02-03T02:39:55.732Z,3.55
2023-02-03T02:42:33.272Z,3.55
2023-02-03T02:45:08.792Z,3.53
2023-02-03T02:47:37.693Z,3.54
2023-02-03T02:50:11.690Z,3.55
2023-02-03T02:52:42.632Z,3.54
2023-02-03T02:55:15.072Z,3.54
2023-02-03T02:57:42.817Z,3.54
2023-02-03T03:00:11.933Z,3.55
2023-02-03T03:02:39.995Z,3.56
2023-02-03T03:05:10.649Z,3.55
2023-02-03T03:07:42.987Z,3.55
2023-02-03T03:10:13.588Z,3.55
2023-02-03T03:12:46.922Z,3.55
2023-02-03T03:15:17.097Z,3.55
2023-02-03T03:17:51.836Z,3.59
2023-02-03T03:20:24.718Z,3.59
2023-02-03T03:22:57.019Z,3.60
2023-02-03T03:25:29.850Z,3.61
2023-02-03T03:28:02.203Z,3.62
2023-02-03T03:30:33.825Z,3.61
2023-02-03T03:33:02.511Z,3.63
2023-02-03T03:35:37.684Z,3.63
2023-02-03T03:38:09.546Z,3.64
2023-02-03T03:40:40.077Z,3.65
2023-02-03T03:43:15.192Z,3.68
2023-02-03T03:45:46.713Z,3.71
2023-02-03T03:48:17.547Z,3.73
2023-02-03T03:50:49.358Z,3.74
2023-02-03T03:53:18.393Z,3.77
2023-02-03T03:55:49.519Z,3.79
2023-02-03T03:58:21.137Z,3.81
2023-02-03T04:00:49.156Z,3.82
2023-02-03T04:03:21.852Z,3.85
2023-02-03T04:05:48.688Z,3.87
2023-02-03T04:08:15.605Z,3.88
2023-02-03T04:10:43.688Z,3.91
2023-02-03T04:13:11.965Z,3.92
2023-02-03T04:15:38.641Z,3.95
2023-02-03T04:18:05.939Z,3.98
2023-02-03T04:20:33.930Z,4.02
2023-02-03T04:23:00.716Z,4.05
2023-02-03T04:25:27.494Z,4.10
2023-02-03T04:27:54.964Z,4.14
2023-02-03T04:30:21.714Z,4.17
2023-02-03T04:32:48.648Z,4.20
2023-02-03T04:35:15.780Z,4.26
2023-02-03T04:37:43.908Z,4.31
2023-02-03T04:40:11.603Z,4.35
2023-02-03T04:42:40.562Z,4.41
2023-02-03T04:45:09.781Z,4.47
2023-02-03T04:47:36.996Z,4.52
2023-02-03T04:50:04.182Z,4.58
2023-02-03T04:52:30.744Z,4.62
2023-02-03T04:54:58.786Z,4.66
2023-02-03T04:57:25.463Z,4.71
2023-02-03T04:59:52.120Z,4.75
2023-02-03T05:02:18.759Z,4.80
2023-02-03T05:04:45.354Z,4.84
2023-02-03T05:07:12.204Z,4.90
2023-02-03T05:09:38.853Z,4.95
2023-02-03T05:12:07.099Z,5.01
2023-02-03T05:14:33.719Z,5.07
2023-02-03T05:17:00.299Z,5.12
2023-02-03T05:19:26.955Z,5.18
2023-02-03T05:21:53.543Z,5.23
2023-02-03T05:24:20.219Z,5.27
2023-02-03T05:26:46.929Z,5.33
2023-02-03T05:29:14.945Z,5.37
2023-02-03T05:31:41.596Z,5.42
2023-02-03T05:34:08.413Z,5.47
2023-02-03T05:36:35.028Z,5.52
2023-02-03T05:39:01.618Z,5.56
2023-02-03T05:41:28.181Z,5.61
2023-02-03T05:43:54.792Z,5.65
2023-02-03T05:46:22.897Z,5.70
2023-02-03T05:48:49.571Z,5.73
2023-02-03T05:51:16.234Z,5.78
2023-02-03T05:53:42.816Z,5.82
2023-02-03T05:56:09.576Z,5.87
2023-02-03T05:58:36.155Z,5.89
2023-02-03T06:01:02.791Z,5.92
2023-02-03T06:03:30.881Z,5.97
2023-02-03T06:05:57.562Z,6.01
2023-02-03T06:08:24.384Z,6.04
2023-02-03T06:10:50.980Z,6.07
2023-02-03T06:13:17.566Z,6.09
2023-02-03T06:15:44.341Z,6.12
2023-02-03T06:18:11.037Z,6.15
2023-02-03T06:20:39.035Z,6.20
2023-02-03T06:23:05.676Z,6.22
2023-02-03T06:25:32.350Z,6.25
2023-02-03T06:27:59.537Z,6.26
2023-02-03T06:30:26.790Z,6.30
2023-02-03T06:32:53.666Z,6.35
2023-02-03T06:35:20.322Z,6.38
2023-02-03T06:37:48.512Z,6.42
2023-02-03T06:40:15.100Z,6.45
2023-02-03T06:42:45.311Z,6.48
2023-02-03T06:45:11.919Z,6.52
2023-02-03T06:47:39.912Z,6.57
2023-02-03T06:50:07.616Z,6.59
2023-02-03T06:52:34.302Z,6.64
2023-02-03T06:55:02.328Z,6.65
2023-02-03T06:57:28.990Z,6.70
2023-02-03T06:59:55.683Z,6.73
2023-02-03T07:02:22.435Z,6.77
2023-02-03T07:04:49.103Z,6.79
2023-02-03T07:07:16.076Z,6.82
2023-02-03T07:09:43.024Z,6.83
2023-02-03T07:12:11.148Z,6.85
2023-02-03T07:14:37.757Z,6.88
2023-02-03T07:17:05.028Z,6.90
2023-02-03T07:19:31.977Z,6.91
2023-02-03T07:21:58.646Z,6.92
2023-02-03T07:24:25.484Z,6.94
2023-02-03T07:26:52.970Z,6.97
2023-02-03T07:29:21.113Z,6.99
2023-02-03T07:31:47.872Z,7.01
2023-02-03T07:34:14.574Z,7.01
2023-02-03T07:36:41.189Z,7.04
2023-02-03T07:39:07.797Z,7.05
2023-02-03T07:41:34.545Z,7.06
2023-02-03T07:44:01.201Z,7.08
2023-02-03T07:46:29.385Z,7.10
2023-02-03T07:48:56.170Z,7.12
2023-02-03T07:51:23.012Z,7.13
2023-02-03T07:53:49.631Z,7.13
2023-02-03T07:56:16.229Z,7.15
2023-02-03T07:58:43.061Z,7.16
2023-02-03T08:01:11.636Z,7.18
2023-02-03T08:03:39.795Z,7.18
2023-02-03T08:06:07.476Z,7.20
2023-02-03T08:08:34.522Z,7.22
2023-02-03T08:11:01.321Z,7.22
2023-02-03T08:13:28.470Z,7.23
2023-02-03T08:15:55.084Z,7.24
2023-02-03T08:18:21.883Z,7.26
2023-02-03T08:20:50.265Z,7.27
2023-02-03T08:23:17.098Z,7.29
2023-02-03T08:25:43.720Z,7.30
2023-02-03T08:28:10.648Z,7.31
2023-02-03T08:30:37.374Z,7.32
2023-02-03T08:33:03.976Z,7.33
2023-02-03T08:35:30.596Z,7.34
2023-02-03T08:37:58.568Z,7.35
2023-02-03T08:40:25.546Z,7.36
2023-02-03T08:42:52.783Z,7.37
2023-02-03T08:45:19.492Z,7.39
2023-02-03T08:47:46.248Z,7.40
2023-02-03T08:50:13.248Z,7.42
2023-02-03T08:52:40.112Z,7.43
2023-02-03T08:55:08.771Z,7.45
2023-02-03T08:57:36.185Z,7.46
2023-02-03T09:00:04.081Z,7.47
2023-02-03T09:02:30.807Z,7.49
2023-02-03T09:04:59.065Z,7.49
2023-02-03T09:07:25.914Z,7.50
2023-02-03T09:09:52.599Z,7.51
2023-02-03T09:12:20.647Z,7.53
2023-02-03T09:14:47.278Z,7.54
2023-02-03T09:17:13.908Z,7.57
2023-02-03T09:19:40.570Z,7.59
2023-02-03T09:22:07.207Z,7.60
2023-02-03T09:24:34.162Z,7.63
2023-02-03T09:27:00.747Z,7.64
2023-02-03T09:29:28.808Z,7.67
2023-02-03T09:31:55.559Z,7.69
2023-02-03T09:34:22.452Z,7.70
2023-02-03T09:36:49.127Z,7.74
2023-02-03T09:39:16.019Z,7.75
2023-02-03T09:42:01.122Z,7.77
2023-02-03T09:44:36.958Z,7.80
2023-02-03T09:47:10.814Z,7.82
2023-02-03T09:49:41.196Z,7.84
2023-02-03T09:52:13.925Z,7.87
2023-02-03T09:54:47.986Z,7.89
2023-02-03T09:57:20.498Z,7.92
2023-02-03T09:59:49.277Z,7.94
2023-02-03T10:02:30.181Z,7.97
2023-02-03T10:05:01.313Z,8.01
2023-02-03T10:07:39.135Z,8.05
2023-02-03T10:10:16.321Z,8.10
2023-02-03T10:13:02.772Z,8.13
2023-02-03T10:15:58.100Z,8.18
2023-02-03T10:18:30.559Z,8.20
2023-02-03T10:21:02.282Z,8.22
2023-02-03T10:23:33.819Z,8.23
2023-02-03T10:26:04.018Z,8.23
2023-02-03T10:28:32.873Z,8.24
2023-02-03T10:31:04.173Z,8.26
2023-02-03T10:33:32.038Z,8.27
2023-02-03T10:36:09.982Z,8.28
2023-02-03T10:38:47.431Z,8.29
2023-02-03T10:41:15.628Z,8.28
2023-02-03T10:43:42.624Z,8.26
2023-02-03T10:46:10.639Z,8.14
2023-02-03T10:48:37.303Z,8.00
2023-02-03T10:51:04.226Z,7.94
2023-02-03T10:53:34.444Z,7.89
2023-02-03T10:56:04.348Z,7.86
2023-02-03T10:58:32.152Z,7.83
2023-02-03T11:01:07.380Z,7.83
2023-02-03T11:03:35.626Z,7.84
2023-02-03T11:06:11.505Z,7.85
2023-02-03T11:08:39.864Z,7.87
2023-02-03T11:11:08.353Z,7.90
2023-02-03T11:13:35.599Z,7.88
2023-02-03T11:16:04.820Z,7.89
2023-02-03T11:18:46.900Z,7.89
2023-02-03T11:21:17.690Z,7.89
2023-02-03T11:23:48.569Z,7.88
2023-02-03T11:26:19.081Z,7.86
2023-02-03T11:28:48.150Z,7.84
2023-02-03T11:31:22.590Z,7.83
2023-02-03T11:33:58.108Z,7.85
2023-02-03T11:36:29.681Z,7.87
2023-02-03T11:39:20.197Z,7.91
2023-02-03T11:41:47.886Z,7.92
2023-02-03T11:44:19.562Z,7.99
2023-02-03T11:46:50.133Z,8.08
2023-02-03T11:50:10.584Z,8.15
2023-02-03T11:53:08.086Z,8.17
2023-02-03T11:55:46.078Z,8.21
2023-02-03T11:58:54.188Z,8.28
2023-02-03T12:01:33.763Z,8.36
2023-02-03T12:04:32.524Z,8.44
2023-02-03T12:07:20.321Z,8.54
2023-02-03T12:09:58.127Z,8.62
2023-02-03T12:12:44.899Z,8.71
2023-02-03T12:15:41.842Z,8.78
2023-02-03T12:18:28.618Z,8.85
2023-02-03T12:21:07.400Z,8.93
2023-02-03T12:23:49.102Z,8.96
2023-02-03T12:26:21.850Z,8.99
2023-02-03T12:28:56.309Z,9.02
2023-02-03T12:31:30.904Z,9.07
2023-02-03T12:34:04.636Z,9.13
2023-02-03T12:36:38.481Z,9.19
2023-02-03T12:39:15.850Z,9.26
2023-02-03T12:41:49.419Z,9.29
2023-02-03T12:44:20.373Z,9.31
2023-02-03T12:46:51.324Z,9.28
2023-02-03T12:49:33.972Z,9.22
2023-02-03T12:52:06.629Z,9.13
2023-02-03T12:54:43.291Z,9.02
2023-02-03T12:57:18.583Z,8.66
2023-02-03T12:59:57.834Z,8.33
2023-02-03T13:02:29.451Z,8.08
2023-02-03T13:05:01.744Z,7.92
2023-02-03T13:07:37.083Z,7.72
2023-02-03T13:10:14.589Z,7.47
2023-02-03T13:12:45.600Z,7.23
2023-02-03T13:15:24.801Z,7.11
2023-02-03T13:17:58.658Z,7.01
2023-02-03T13:20:27.736Z,6.90
2023-02-03T13:22:54.647Z,6.83
2023-02-03T13:25:25.928Z,6.78
2023-02-03T13:28:02.968Z,6.74
2023-02-03T13:30:50.779Z,6.74
2023-02-03T13:33:48.627Z,6.75
2023-02-03T13:36:59.878Z,6.79
2023-02-03T13:39:43.279Z,6.83
2023-02-03T13:42:24.934Z,6.86
2023-02-03T13:44:55.397Z,6.91
2023-02-03T13:47:25.818Z,6.97
2023-02-03T13:49:55.988Z,6.99
2023-02-03T13:52:44.367Z,7.01
2023-02-03T13:55:28.548Z,7.05
2023-02-03T13:57:57.472Z,7.08
2023-02-03T14:01:01.569Z,7.10
2023-02-03T14:03:42.281Z,7.12
2023-02-03T14:06:57.447Z,7.13
2023-02-03T14:09:35.817Z,7.14
2023-02-03T14:12:33.794Z,7.16
2023-02-03T14:15:17.268Z,7.15
2023-02-03T14:18:25.902Z,7.16
2023-02-03T14:21:09.282Z,7.18
2023-02-03T14:23:43.084Z,7.17
2023-02-03T14:26:19.294Z,7.20
2023-02-03T14:28:47.499Z,7.22
2023-02-03T14:31:19.476Z,7.27
2023-02-03T14:33:52.791Z,7.34
2023-02-03T14:36:32.489Z,7.43
2023-02-03T14:39:02.528Z,7.51
2023-02-03T14:41:38.267Z,7.56
2023-02-03T14:44:15.215Z,7.60
2023-02-03T14:46:56.752Z,7.64
2023-02-03T14:49:37.949Z,7.64
2023-02-03T14:52:18.109Z,7.63
2023-02-03T14:54:58.615Z,7.63
2023-02-03T14:57:39.598Z,7.62
2023-02-03T15:00:24.321Z,7.60
2023-02-03T15:03:21.295Z,7.59
2023-02-03T15:05:49.905Z,7.59
2023-02-03T15:08:44.769Z,7.59
2023-02-03T15:11:33.434Z,7.60
2023-02-03T15:14:21.799Z,7.61
2023-02-03T15:16:53.143Z,7.62
2023-02-03T15:19:25.276Z,7.61
2023-02-03T15:21:52.279Z,7.59
2023-02-03T15:24:21.267Z,7.58
2023-02-03T15:26:49.570Z,7.56
2023-02-03T15:29:26.190Z,7.54
2023-02-03T15:32:01.281Z,7.53
2023-02-03T15:34:34.189Z,7.50
2023-02-03T15:37:06.717Z,7.49
2023-02-03T15:39:41.270Z,7.47
2023-02-03T15:42:14.004Z,7.45
2023-02-03T15:44:45.351Z,7.44
2023-02-03T15:47:23.129Z,7.43
2023-02-03T15:49:59.830Z,7.42
2023-02-03T15:52:29.238Z,7.41
2023-02-03T15:55:07.615Z,7.40
2023-02-03T15:57:35.470Z,7.38
2023-02-03T16:00:09.642Z,7.37
2023-02-03T16:02:42.571Z,7.35
2023-02-03T16:05:31.360Z,7.34
2023-02-03T16:08:28.177Z,7.34
2023-02-03T16:10:54.947Z,7.32
2023-02-03T16:13:24.370Z,7.32
2023-02-03T16:16:00.773Z,7.32
2023-02-03T16:18:27.924Z,7.31
2023-02-03T16:20:56.071Z,7.30
2023-02-03T16:23:24.999Z,7.29
2023-02-03T16:26:06.490Z,7.30
2023-02-03T16:28:33.495Z,7.30
2023-02-03T16:31:02.744Z,7.30
2023-02-03T16:33:32.201Z,7.32
2023-02-03T16:36:03.127Z,7.31
2023-02-03T16:38:29.685Z,7.31
2023-02-03T16:40:56.378Z,7.32
2023-02-03T16:43:22.981Z,7.33
2023-02-03T16:45:55.814Z,7.33
2023-02-03T16:48:22.598Z,7.32
2023-02-03T16:50:49.418Z,7.33
2023-02-03T16:53:19.729Z,7.34
2023-02-03T16:55:46.574Z,7.35
2023-02-03T16:58:13.322Z,7.34
2023-02-03T17:00:40.612Z,7.36
2023-02-03T17:03:07.893Z,7.36
2023-02-03T17:05:36.700Z,7.37
2023-02-03T17:08:03.909Z,7.37
2023-02-03T17:10:33.647Z,7.37
2023-02-03T17:13:00.717Z,7.36
2023-02-03T17:15:27.675Z,7.36
2023-02-03T17:17:54.438Z,7.36
2023-02-03T17:20:21.271Z,7.35
2023-02-03T17:22:48.162Z,7.35
2023-02-03T17:25:14.922Z,7.33
2023-02-03T17:27:43.160Z,7.34
2023-02-03T17:30:11.230Z,7.33
2023-02-03T17:32:37.841Z,7.33
2023-02-03T17:35:04.700Z,7.34
2023-02-03T17:37:32.540Z,7.33
2023-02-03T17:53:49.804Z,7.33
2023-02-03T17:56:18.704Z,7.34
2023-02-03T17:58:47.248Z,7.35
2023-02-03T18:01:16.504Z,7.35
2023-02-03T18:03:44.147Z,7.35
2023-02-03T18:06:11.694Z,7.35
2023-02-03T18:08:38.433Z,7.36
2023-02-03T18:11:05.767Z,7.37
2023-02-03T18:13:34.922Z,7.38
2023-02-03T18:16:03.291Z,7.37
2023-02-03T18:18:30.453Z,7.39
2023-02-03T18:20:57.126Z,7.40
2023-02-03T18:23:23.801Z,7.40
2023-02-03T18:25:52.869Z,7.40
2023-02-03T18:28:19.668Z,7.40
2023-02-03T18:30:46.371Z,7.42
2023-02-03T18:33:14.459Z,7.40
2023-02-03T18:35:41.434Z,7.41
2023-02-03T18:38:08.467Z,7.41
2023-02-03T18:40:37.242Z,7.40
2023-02-03T18:43:04.260Z,7.40
2023-02-03T18:45:31.209Z,7.39
2023-02-03T18:47:57.843Z,7.38
2023-02-03T18:50:25.924Z,7.38
2023-02-03T18:52:53.641Z,7.38
2023-02-03T18:55:20.501Z,7.39
2023-02-03T18:57:47.396Z,7.37
2023-02-03T19:00:15.204Z,7.37
2023-02-03T19:02:42.001Z,7.38
2023-02-03T19:05:08.971Z,7.37
2023-02-03T19:07:37.273Z,7.36
2023-02-03T19:10:04.273Z,7.33
2023-02-03T19:12:30.878Z,7.31
2023-02-03T19:14:57.534Z,7.31
2023-02-03T19:17:24.255Z,7.30
2023-02-03T19:19:50.891Z,7.24
2023-02-03T19:22:17.574Z,7.21
2023-02-03T19:24:45.613Z,7.20
2023-02-03T19:27:12.405Z,7.19
2023-02-03T19:29:39.054Z,7.18
2023-02-03T19:32:06.035Z,7.17
2023-02-03T19:34:32.854Z,7.17
2023-02-03T19:36:59.570Z,7.17
2023-02-03T19:39:26.118Z,7.17
2023-02-03T19:41:54.143Z,7.14
2023-02-03T19:44:20.891Z,7.12
2023-02-03T19:46:47.720Z,7.08
2023-02-03T19:49:14.408Z,7.06
2023-02-03T19:51:41.880Z,7.04
2023-02-03T19:54:11.448Z,7.01
2023-02-03T19:56:38.341Z,7.01
2023-02-03T19:59:07.270Z,7.01
2023-02-03T20:01:34.327Z,7.00
2023-02-03T20:04:01.545Z,7.01
2023-02-03T20:06:28.612Z,7.01
2023-02-03T20:08:55.872Z,7.01
2023-02-03T20:11:22.999Z,7.02
2023-02-03T20:13:49.648Z,7.02
2023-02-03T20:16:17.852Z,7.03
2023-02-03T20:18:44.633Z,7.02
2023-02-03T20:21:11.362Z,7.01
2023-02-03T20:23:38.024Z,6.99
2023-02-03T20:26:05.035Z,6.97
2023-02-03T20:28:31.710Z,6.94
2023-02-03T20:31:00.578Z,6.91
2023-02-03T20:33:30.002Z,6.88
2023-02-03T20:35:57.286Z,6.88
2023-02-03T20:38:24.342Z,6.87
2023-02-03T20:40:51.037Z,6.85
2023-02-03T20:43:20.540Z,6.85
2023-02-03T20:45:47.358Z,6.82
2023-02-03T20:48:15.771Z,6.81
2023-02-03T20:50:44.400Z,6.81
2023-02-03T20:53:13.665Z,6.79
2023-02-03T20:55:40.298Z,6.79
2023-02-03T20:58:16.655Z,6.79
2023-02-03T21:00:43.367Z,6.79
2023-02-03T21:03:11.050Z,6.79
2023-02-03T21:05:41.515Z,6.76
2023-02-03T21:08:14.761Z,6.75
2023-02-03T21:10:41.826Z,6.73
2023-02-03T21:13:18.250Z,6.69
2023-02-03T21:15:44.908Z,6.64
2023-02-03T21:18:33.574Z,6.57
2023-02-03T21:21:01.508Z,6.51
2023-02-03T21:23:37.639Z,6.40
2023-02-03T21:26:16.420Z,6.23
2023-02-03T21:28:43.132Z,6.10
2023-02-03T21:31:18.990Z,6.02
2023-02-03T21:33:45.716Z,5.95
2023-02-03T21:36:16.615Z,5.88
2023-02-03T21:38:46.427Z,5.81
2023-02-03T21:41:16.620Z,5.69
2023-02-03T21:43:43.634Z,5.57
2023-02-03T21:46:16.519Z,5.46
2023-02-03T21:48:46.489Z,5.37
2023-02-03T21:51:16.954Z,5.32
2023-02-03T21:53:51.468Z,5.27
2023-02-03T21:56:20.417Z,5.24
2023-02-03T21:58:48.523Z,5.22
2023-02-03T22:01:15.875Z,5.17
2023-02-03T22:03:45.191Z,5.13
2023-02-03T22:06:24.311Z,5.09
2023-02-03T22:08:54.005Z,5.06
2023-02-03T22:11:22.444Z,5.03
2023-02-03T22:13:49.538Z,5.00
2023-02-03T22:16:16.494Z,4.94
2023-02-03T22:18:43.496Z,4.91
2023-02-03T22:21:10.245Z,4.88
2023-02-03T22:23:36.929Z,4.86
2023-02-03T22:26:05.662Z,4.85
2023-02-03T22:28:32.277Z,4.81
2023-02-03T22:30:58.960Z,4.74
2023-02-03T22:33:25.757Z,4.68
2023-02-03T22:35:52.327Z,4.63
2023-02-03T22:38:18.965Z,4.61
2023-02-03T22:40:45.593Z,4.57
2023-02-03T22:43:13.727Z,4.54
2023-02-03T22:45:40.324Z,4.51
2023-02-03T22:48:07.051Z,4.48
2023-02-03T22:50:36.228Z,4.46
2023-02-03T22:53:03.284Z,4.42
2023-02-03T22:55:30.671Z,4.43
2023-02-03T22:57:57.401Z,4.42
2023-02-03T23:00:26.175Z,4.42
2023-02-03T23:02:52.945Z,4.39
2023-02-03T23:05:20.221Z,4.37
2023-02-03T23:07:47.721Z,4.36
2023-02-03T23:10:17.443Z,4.37
2023-02-03T23:12:44.275Z,4.36
2023-02-03T23:15:11.442Z,4.35
2023-02-03T23:17:39.509Z,4.34
2023-02-03T23:20:08.070Z,4.34
2023-02-03T23:22:34.888Z,4.31
2023-02-03T23:25:01.478Z,4.29
2023-02-03T23:27:28.355Z,4.28
2023-02-03T23:29:55.102Z,4.28
2023-02-03T23:32:21.713Z,4.27
2023-02-03T23:34:49.710Z,4.28
2023-02-03T23:37:16.276Z,4.27
2023-02-03T23:39:43.006Z,4.28
2023-02-03T23:42:09.916Z,4.26
2023-02-03T23:44:36.591Z,4.24
2023-02-03T23:47:03.324Z,4.23
2023-02-03T23:49:29.908Z,4.23
2023-02-03T23:51:58.079Z,4.21
2023-02-03T23:54:24.942Z,4.21
2023-02-03T23:56:51.624Z,4.20
2023-02-03T23:59:18.362Z,4.20
